sensor_id;sensor_type;location;lat;lon;timestamp;pressure;altitude;pressure_sealevel;temperature;humidity
9444;BME280;4760;42.148;24.754;2022-09-09T00:15:55;99758.91;;;19.15;100.00
9444;BME280;4760;42.148;24.754;2022-09-09T00:25:50;99758.19;;;19.11;100.00
9444;BME280;4760;42.148;24.754;2022-09-09T00:35:42;99768.19;;;18.92;100.00
9444;BME280;4760;42.148;24.754;2022-09-09T00:45:51;99763.59;;;18.82;100.00
9444;BME280;4760;42.148;24.754;2022-09-09T01:10:49;99774.63;;;18.70;100.00
9444;BME280;4760;42.148;24.754;2022-09-09T01:31:52;99777.00;;;18.71;100.00
9444;BME280;4760;42.148;24.754;2022-09-09T01:41:42;99772.38;;;18.65;100.00
9444;BME280;4760;42.148;24.754;2022-09-09T01:51:31;99751.00;;;18.55;100.00
9444;BME280;4760;42.148;24.754;2022-09-09T02:01:27;99748.28;;;18.71;100.00
9444;BME280;4760;42.148;24.754;2022-09-09T02:25:44;99747.78;;;18.56;100.00
9444;BME280;4760;42.148;24.754;2022-09-09T02:35:34;99745.56;;;18.67;100.00
9444;BME280;4760;42.148;24.754;2022-09-09T02:45:27;99766.63;;;18.52;100.00
9444;BME280;4760;42.148;24.754;2022-09-09T02:55:23;99772.13;;;18.56;100.00
9444;BME280;4760;42.148;24.754;2022-09-09T03:20:00;99768.19;;;18.30;100.00
9444;BME280;4760;42.148;24.754;2022-09-09T03:44:34;99731.19;;;17.83;100.00
9444;BME280;4760;42.148;24.754;2022-09-09T03:54:23;99790.28;;;18.21;100.00
9444;BME280;4760;42.148;24.754;2022-09-09T04:07:52;99786.16;;;18.29;100.00
9444;BME280;4760;42.148;24.754;2022-09-09T04:21:46;99765.75;;;18.55;100.00
9444;BME280;4760;42.148;24.754;2022-09-09T04:31:37;99781.69;;;21.17;100.00
9444;BME280;4760;42.148;24.754;2022-09-09T04:41:28;99799.56;;;23.02;99.84
9444;BME280;4760;42.148;24.754;2022-09-09T04:55:00;99827.75;;;24.13;93.65
9444;BME280;4760;42.148;24.754;2022-09-09T05:05:14;99839.63;;;24.84;85.50
9444;BME280;4760;42.148;24.754;2022-09-09T05:15:28;99837.72;;;25.26;85.45
9444;BME280;4760;42.148;24.754;2022-09-09T05:29:24;99821.63;;;26.02;78.49
9444;BME280;4760;42.148;24.754;2022-09-09T05:57:04;99830.88;;;26.35;74.05
9444;BME280;4760;42.148;24.754;2022-09-09T06:32:36;99813.72;;;27.59;66.65
9444;BME280;4760;42.148;24.754;2022-09-09T06:42:24;99835.06;;;27.90;66.32
9444;BME280;4760;42.148;24.754;2022-09-09T06:52:15;99832.97;;;28.40;61.09
9444;BME280;4760;42.148;24.754;2022-09-09T07:02:28;99831.25;;;28.68;63.56
9444;BME280;4760;42.148;24.754;2022-09-09T07:12:17;99830.34;;;28.36;63.99
9444;BME280;4760;42.148;24.754;2022-09-09T07:37:15;99833.47;;;28.59;65.14
9444;BME280;4760;42.148;24.754;2022-09-09T07:43:49;99831.47;;;28.44;66.60
9444;BME280;4760;42.148;24.754;2022-09-09T07:53:38;99820.69;;;28.28;66.38
9444;BME280;4760;42.148;24.754;2022-09-09T07:59:46;99817.94;;;28.14;62.98
9444;BME280;4760;42.148;24.754;2022-09-09T08:20:16;99790.16;;;28.18;64.18
9444;BME280;4760;42.148;24.754;2022-09-09T08:33:45;99760.88;;;27.91;67.03
9444;BME280;4760;42.148;24.754;2022-09-09T08:43:35;99785.72;;;28.57;66.29
9444;BME280;4760;42.148;24.754;2022-09-09T08:53:27;99783.75;;;28.43;61.88
9444;BME280;4760;42.148;24.754;2022-09-09T09:03:26;99773.03;;;27.77;71.28
9444;BME280;4760;42.148;24.754;2022-09-09T09:20:48;99754.56;;;27.47;65.31
9444;BME280;4760;42.148;24.754;2022-09-09T09:37:36;99729.69;;;27.71;72.59
9444;BME280;4760;42.148;24.754;2022-09-09T09:47:24;99711.16;;;28.11;63.90
9444;BME280;4760;42.148;24.754;2022-09-09T09:53:35;99700.47;;;28.20;64.62
9444;BME280;4760;42.148;24.754;2022-09-09T10:11:21;99690.84;;;28.12;63.99
9444;BME280;4760;42.148;24.754;2022-09-09T10:21:24;99664.88;;;27.58;67.09
9444;BME280;4760;42.148;24.754;2022-09-09T10:46:29;99670.63;;;27.84;68.32
9444;BME280;4760;42.148;24.754;2022-09-09T10:56:22;99642.72;;;28.18;71.07
9444;BME280;4760;42.148;24.754;2022-09-09T11:06:18;99655.44;;;28.07;69.33
9444;BME280;4760;42.148;24.754;2022-09-09T11:16:17;99630.56;;;28.43;65.44
9444;BME280;4760;42.148;24.754;2022-09-09T11:26:37;99618.09;;;28.55;65.81
9444;BME280;4760;42.148;24.754;2022-09-09T11:58:21;99583.63;;;28.99;63.11
9444;BME280;4760;42.148;24.754;2022-09-09T12:08:35;99572.22;;;29.30;63.40
9444;BME280;4760;42.148;24.754;2022-09-09T12:18:26;99572.38;;;29.64;61.13
9444;BME280;4760;42.148;24.754;2022-09-09T12:54:15;99529.75;;;29.64;63.20
9444;BME280;4760;42.148;24.754;2022-09-09T13:04:27;99527.81;;;30.20;59.61
9444;BME280;4760;42.148;24.754;2022-09-09T13:43:18;99479.75;;;30.11;63.69
9444;BME280;4760;42.148;24.754;2022-09-09T13:53:35;99466.53;;;29.91;69.98
9444;BME280;4760;42.148;24.754;2022-09-09T14:03:49;99456.69;;;29.70;66.31
9444;BME280;4760;42.148;24.754;2022-09-09T14:24:40;99456.31;;;29.29;68.56
9444;BME280;4760;42.148;24.754;2022-09-09T14:34:28;99440.34;;;28.89;70.65
9444;BME280;4760;42.148;24.754;2022-09-09T14:44:19;99465.44;;;29.02;72.24
9444;BME280;4760;42.148;24.754;2022-09-09T15:05:11;99439.19;;;29.18;69.04
9444;BME280;4760;42.148;24.754;2022-09-09T15:33:25;99424.72;;;28.68;71.55
9444;BME280;4760;42.148;24.754;2022-09-09T15:43:14;99421.25;;;28.47;71.42
9444;BME280;4760;42.148;24.754;2022-09-09T16:07:24;99414.31;;;27.85;76.32
9444;BME280;4760;42.148;24.754;2022-09-09T16:17:14;99417.03;;;27.48;78.47
9444;BME280;4760;42.148;24.754;2022-09-09T16:27:29;99427.78;;;27.44;77.77
9444;BME280;4760;42.148;24.754;2022-09-09T16:41:25;99421.31;;;26.98;80.87
9444;BME280;4760;42.148;24.754;2022-09-09T17:19:46;99426.41;;;26.09;87.59
9444;BME280;4760;42.148;24.754;2022-09-09T17:29:36;99436.66;;;25.92;88.12
9444;BME280;4760;42.148;24.754;2022-09-09T17:39:24;99442.91;;;25.67;90.54
9444;BME280;4760;42.148;24.754;2022-09-09T17:49:16;99447.31;;;25.44;96.67
9444;BME280;4760;42.148;24.754;2022-09-09T17:59:30;99450.09;;;25.29;92.92
9444;BME280;4760;42.148;24.754;2022-09-09T18:09:20;99463.09;;;25.12;95.88
9444;BME280;4760;42.148;24.754;2022-09-09T18:19:11;99477.69;;;24.87;100.00
9444;BME280;4760;42.148;24.754;2022-09-09T18:29:25;99480.97;;;24.85;100.00
9444;BME280;4760;42.148;24.754;2022-09-09T18:39:17;99473.06;;;24.66;100.00
9444;BME280;4760;42.148;24.754;2022-09-09T18:49:30;99484.84;;;24.64;100.00
9444;BME280;4760;42.148;24.754;2022-09-09T18:59:18;99489.78;;;24.36;100.00
9444;BME280;4760;42.148;24.754;2022-09-09T19:09:32;99496.31;;;24.52;100.00
9444;BME280;4760;42.148;24.754;2022-09-09T19:19:25;99481.25;;;24.22;100.00
9444;BME280;4760;42.148;24.754;2022-09-09T19:29:17;99470.34;;;23.96;100.00
9444;BME280;4760;42.148;24.754;2022-09-09T19:39:30;99472.56;;;23.83;100.00
9444;BME280;4760;42.148;24.754;2022-09-09T19:49:20;99464.25;;;23.89;100.00
9444;BME280;4760;42.148;24.754;2022-09-09T19:59:33;99456.00;;;23.67;100.00
9444;BME280;4760;42.148;24.754;2022-09-09T20:09:24;99445.69;;;23.55;100.00
9444;BME280;4760;42.148;24.754;2022-09-09T20:15:31;99462.59;;;23.46;100.00
9444;BME280;4760;42.148;24.754;2022-09-09T20:25:20;99456.47;;;23.02;100.00
9444;BME280;4760;42.148;24.754;2022-09-09T20:35:35;99449.13;;;23.04;100.00
9444;BME280;4760;42.148;24.754;2022-09-09T20:45:25;99448.78;;;22.93;100.00
9444;BME280;4760;42.148;24.754;2022-09-09T20:59:18;99447.69;;;22.82;100.00
9444;BME280;4760;42.148;24.754;2022-09-09T21:09:33;99468.28;;;22.70;100.00
9444;BME280;4760;42.148;24.754;2022-09-09T21:19:24;99452.25;;;22.48;100.00
9444;BME280;4760;42.148;24.754;2022-09-09T21:29:17;99458.34;;;22.47;100.00
9444;BME280;4760;42.148;24.754;2022-09-09T21:39:31;99456.78;;;22.46;100.00
9444;BME280;4760;42.148;24.754;2022-09-09T21:49:21;99432.31;;;22.15;100.00
9444;BME280;4760;42.148;24.754;2022-09-09T22:03:14;99448.84;;;22.13;100.00
9444;BME280;4760;42.148;24.754;2022-09-09T22:13:31;99452.16;;;22.21;100.00
9444;BME280;4760;42.148;24.754;2022-09-09T22:23:20;99444.41;;;22.03;100.00
9444;BME280;4760;42.148;24.754;2022-09-09T22:33:36;99438.94;;;22.00;100.00
9444;BME280;4760;42.148;24.754;2022-09-09T22:43:24;99431.00;;;21.77;100.00
9444;BME280;4760;42.148;24.754;2022-09-09T22:53:16;99447.44;;;21.87;100.00
9444;BME280;4760;42.148;24.754;2022-09-09T23:07:13;99440.22;;;21.77;100.00
9444;BME280;4760;42.148;24.754;2022-09-09T23:30:51;99399.50;;;21.29;100.00
9444;BME280;4760;42.148;24.754;2022-09-09T23:40:39;99416.47;;;21.47;100.00
9444;BME280;4760;42.148;24.754;2022-09-09T23:50:29;99422.22;;;21.44;100.00
